sensor_id;sensor_type;location;lat;lon;timestamp;temperature;humidity
51867;DHT22;52862;52.504;13.480;2023-07-16T00:00:04;23.60;99.90
51867;DHT22;52862;52.504;13.480;2023-07-16T00:02:31;23.00;99.90
51867;DHT22;52862;52.504;13.480;2023-07-16T00:04:57;23.80;99.90
51867;DHT22;52862;52.504;13.480;2023-07-16T00:07:24;23.10;99.90
51867;DHT22;52862;52.504;13.480;2023-07-16T00:09:51;23.50;99.90
51867;DHT22;52862;52.504;13.480;2023-07-16T00:12:18;23.10;99.90
51867;DHT22;52862;52.504;13.480;2023-07-16T00:14:45;23.60;99.90
51867;DHT22;52862;52.504;13.480;2023-07-16T00:17:12;23.60;99.90
51867;DHT22;52862;52.504;13.480;2023-07-16T00:19:39;23.40;99.90
51867;DHT22;52862;52.504;13.480;2023-07-16T00:22:06;23.30;99.90
51867;DHT22;52862;52.504;13.480;2023-07-16T00:24:33;23.40;99.90
51867;DHT22;52862;52.504;13.480;2023-07-16T00:27:00;23.10;99.90
51867;DHT22;52862;52.504;13.480;2023-07-16T00:29:27;23.80;99.90
51867;DHT22;52862;52.504;13.480;2023-07-16T00:31:53;23.50;99.90
51867;DHT22;52862;52.504;13.480;2023-07-16T00:34:21;23.90;99.90
51867;DHT22;52862;52.504;13.480;2023-07-16T00:36:48;24.30;99.90
51867;DHT22;52862;52.504;13.480;2023-07-16T00:39:14;23.40;99.90
51867;DHT22;52862;52.504;13.480;2023-07-16T00:41:41;24.00;99.90
51867;DHT22;52862;52.504;13.480;2023-07-16T00:44:08;24.00;99.90
51867;DHT22;52862;52.504;13.480;2023-07-16T00:46:35;23.90;99.90
51867;DHT22;52862;52.504;13.480;2023-07-16T00:49:02;23.80;99.90
51867;DHT22;52862;52.504;13.480;2023-07-16T00:51:30;23.50;99.90
51867;DHT22;52862;52.504;13.480;2023-07-16T00:53:57;24.00;99.90
51867;DHT22;52862;52.504;13.480;2023-07-16T00:56:24;23.20;99.90
51867;DHT22;52862;52.504;13.480;2023-07-16T00:58:51;23.80;99.90
51867;DHT22;52862;52.504;13.480;2023-07-16T01:06:16;23.00;99.90
51867;DHT22;52862;52.504;13.480;2023-07-16T01:08:48;23.60;99.90
51867;DHT22;52862;52.504;13.480;2023-07-16T01:11:16;22.60;99.90
51867;DHT22;52862;52.504;13.480;2023-07-16T01:13:43;23.00;99.90
51867;DHT22;52862;52.504;13.480;2023-07-16T01:16:18;23.30;99.90
51867;DHT22;52862;52.504;13.480;2023-07-16T01:18:45;23.20;99.90
51867;DHT22;52862;52.504;13.480;2023-07-16T01:21:12;23.80;99.90
51867;DHT22;52862;52.504;13.480;2023-07-16T01:23:59;23.30;99.90
51867;DHT22;52862;52.504;13.480;2023-07-16T01:26:36;19.10;99.90
51867;DHT22;52862;52.504;13.480;2023-07-16T01:29:31;22.90;99.90
51867;DHT22;52862;52.504;13.480;2023-07-16T01:32:01;22.70;99.90
51867;DHT22;52862;52.504;13.480;2023-07-16T01:34:32;22.70;99.90
51867;DHT22;52862;52.504;13.480;2023-07-16T01:36:59;21.80;99.90
51867;DHT22;52862;52.504;13.480;2023-07-16T01:39:27;22.80;99.90
51867;DHT22;52862;52.504;13.480;2023-07-16T01:41:54;22.50;99.90
51867;DHT22;52862;52.504;13.480;2023-07-16T01:44:20;22.90;99.90
51867;DHT22;52862;52.504;13.480;2023-07-16T01:46:57;22.40;99.90
51867;DHT22;52862;52.504;13.480;2023-07-16T01:51:53;22.10;99.90
51867;DHT22;52862;52.504;13.480;2023-07-16T01:54:21;23.00;99.90
51867;DHT22;52862;52.504;13.480;2023-07-16T01:56:48;23.00;99.90
51867;DHT22;52862;52.504;13.480;2023-07-16T01:59:17;22.60;99.90
51867;DHT22;52862;52.504;13.480;2023-07-16T02:04:15;22.70;99.90
51867;DHT22;52862;52.504;13.480;2023-07-16T02:06:42;22.80;99.90
51867;DHT22;52862;52.504;13.480;2023-07-16T02:09:10;22.50;99.90
51867;DHT22;52862;52.504;13.480;2023-07-16T02:11:36;22.70;99.90
51867;DHT22;52862;52.504;13.480;2023-07-16T02:14:03;23.40;99.90
51867;DHT22;52862;52.504;13.480;2023-07-16T02:16:30;22.90;99.90
51867;DHT22;52862;52.504;13.480;2023-07-16T02:18:57;23.00;99.90
51867;DHT22;52862;52.504;13.480;2023-07-16T02:21:26;23.10;99.90
51867;DHT22;52862;52.504;13.480;2023-07-16T02:23:52;23.40;99.90
51867;DHT22;52862;52.504;13.480;2023-07-16T02:26:19;22.00;99.90
51867;DHT22;52862;52.504;13.480;2023-07-16T02:31:13;23.00;99.90
51867;DHT22;52862;52.504;13.480;2023-07-16T02:36:07;22.70;99.90
51867;DHT22;52862;52.504;13.480;2023-07-16T02:38:34;22.20;99.90
51867;DHT22;52862;52.504;13.480;2023-07-16T02:41:01;21.90;99.90
51867;DHT22;52862;52.504;13.480;2023-07-16T02:43:28;22.40;99.90
51867;DHT22;52862;52.504;13.480;2023-07-16T02:45:55;21.70;99.90
51867;DHT22;52862;52.504;13.480;2023-07-16T02:48:22;21.60;99.90
51867;DHT22;52862;52.504;13.480;2023-07-16T02:50:48;21.50;99.90
51867;DHT22;52862;52.504;13.480;2023-07-16T02:55:45;21.70;99.90
51867;DHT22;52862;52.504;13.480;2023-07-16T02:58:12;21.00;99.90
51867;DHT22;52862;52.504;13.480;2023-07-16T03:00:39;22.20;99.90
51867;DHT22;52862;52.504;13.480;2023-07-16T03:05:33;21.60;99.90
51867;DHT22;52862;52.504;13.480;2023-07-16T03:08:00;21.80;99.90
51867;DHT22;52862;52.504;13.480;2023-07-16T03:10:27;22.20;99.90
51867;DHT22;52862;52.504;13.480;2023-07-16T03:12:55;21.80;99.90
51867;DHT22;52862;52.504;13.480;2023-07-16T03:15:22;22.00;99.90
51867;DHT22;52862;52.504;13.480;2023-07-16T03:17:48;21.50;99.90
51867;DHT22;52862;52.504;13.480;2023-07-16T03:20:16;22.10;99.90
51867;DHT22;52862;52.504;13.480;2023-07-16T03:22:45;22.10;99.90
51867;DHT22;52862;52.504;13.480;2023-07-16T03:25:14;22.20;99.90
51867;DHT22;52862;52.504;13.480;2023-07-16T03:27:41;22.10;99.90
51867;DHT22;52862;52.504;13.480;2023-07-16T03:30:09;21.40;99.90
51867;DHT22;52862;52.504;13.480;2023-07-16T03:32:36;22.10;99.90
51867;DHT22;52862;52.504;13.480;2023-07-16T03:35:19;21.90;99.90
51867;DHT22;52862;52.504;13.480;2023-07-16T03:37:47;22.10;99.90
51867;DHT22;52862;52.504;13.480;2023-07-16T03:40:15;21.60;99.90
51867;DHT22;52862;52.504;13.480;2023-07-16T03:42:43;21.70;99.90
51867;DHT22;52862;52.504;13.480;2023-07-16T03:45:11;21.50;99.90
51867;DHT22;52862;52.504;13.480;2023-07-16T03:47:37;21.50;99.90
51867;DHT22;52862;52.504;13.480;2023-07-16T03:50:06;21.40;99.90
51867;DHT22;52862;52.504;13.480;2023-07-16T03:55:00;21.30;99.90
51867;DHT22;52862;52.504;13.480;2023-07-16T03:57:28;21.30;99.90
51867;DHT22;52862;52.504;13.480;2023-07-16T03:59:55;21.60;99.90
51867;DHT22;52862;52.504;13.480;2023-07-16T04:02:23;21.40;99.90
51867;DHT22;52862;52.504;13.480;2023-07-16T04:07:17;21.30;99.90
51867;DHT22;52862;52.504;13.480;2023-07-16T04:09:44;21.50;99.90
51867;DHT22;52862;52.504;13.480;2023-07-16T04:12:11;21.00;99.90
51867;DHT22;52862;52.504;13.480;2023-07-16T04:14:38;21.30;99.90
51867;DHT22;52862;52.504;13.480;2023-07-16T04:17:05;21.40;99.90
51867;DHT22;52862;52.504;13.480;2023-07-16T04:19:33;21.30;99.90
51867;DHT22;52862;52.504;13.480;2023-07-16T04:22:00;21.40;99.90
51867;DHT22;52862;52.504;13.480;2023-07-16T04:24:27;21.50;99.90
51867;DHT22;52862;52.504;13.480;2023-07-16T04:26:54;22.00;99.90
51867;DHT22;52862;52.504;13.480;2023-07-16T04:29:20;21.10;99.90
51867;DHT22;52862;52.504;13.480;2023-07-16T04:31:48;21.70;99.90
51867;DHT22;52862;52.504;13.480;2023-07-16T04:34:14;21.60;99.90
51867;DHT22;52862;52.504;13.480;2023-07-16T04:36:43;21.60;99.90
51867;DHT22;52862;52.504;13.480;2023-07-16T04:39:09;21.70;99.90
51867;DHT22;52862;52.504;13.480;2023-07-16T04:41:36;21.20;99.90
51867;DHT22;52862;52.504;13.480;2023-07-16T04:44:05;21.10;99.90
51867;DHT22;52862;52.504;13.480;2023-07-16T04:46:32;21.30;99.90
51867;DHT22;52862;52.504;13.480;2023-07-16T04:48:59;21.40;99.90
51867;DHT22;52862;52.504;13.480;2023-07-16T04:51:25;21.80;99.90
51867;DHT22;52862;52.504;13.480;2023-07-16T04:53:53;21.90;99.90
51867;DHT22;52862;52.504;13.480;2023-07-16T04:56:20;21.60;99.90
51867;DHT22;52862;52.504;13.480;2023-07-16T04:58:47;21.20;99.90
51867;DHT22;52862;52.504;13.480;2023-07-16T05:01:13;21.50;99.90
51867;DHT22;52862;52.504;13.480;2023-07-16T05:06:08;21.80;99.90
51867;DHT22;52862;52.504;13.480;2023-07-16T05:08:34;21.70;99.90
51867;DHT22;52862;52.504;13.480;2023-07-16T05:11:02;21.40;99.90
51867;DHT22;52862;52.504;13.480;2023-07-16T05:13:29;21.00;99.90
51867;DHT22;52862;52.504;13.480;2023-07-16T05:15:55;21.80;99.90
51867;DHT22;52862;52.504;13.480;2023-07-16T05:23:17;21.40;99.90
51867;DHT22;52862;52.504;13.480;2023-07-16T05:25:46;20.20;99.90
51867;DHT22;52862;52.504;13.480;2023-07-16T05:28:14;21.90;99.90
51867;DHT22;52862;52.504;13.480;2023-07-16T05:33:09;22.00;99.90
51867;DHT22;52862;52.504;13.480;2023-07-16T05:35:36;21.90;99.90
51867;DHT22;52862;52.504;13.480;2023-07-16T05:40:29;22.70;99.90
51867;DHT22;52862;52.504;13.480;2023-07-16T05:42:56;22.70;99.90
51867;DHT22;52862;52.504;13.480;2023-07-16T05:45:24;22.40;99.90
51867;DHT22;52862;52.504;13.480;2023-07-16T05:47:50;22.70;99.90
51867;DHT22;52862;52.504;13.480;2023-07-16T05:52:44;22.40;99.90
51867;DHT22;52862;52.504;13.480;2023-07-16T05:55:14;22.40;99.90
51867;DHT22;52862;52.504;13.480;2023-07-16T05:57:41;21.90;99.90
51867;DHT22;52862;52.504;13.480;2023-07-16T06:00:08;22.40;99.90
51867;DHT22;52862;52.504;13.480;2023-07-16T06:02:37;22.60;99.90
51867;DHT22;52862;52.504;13.480;2023-07-16T06:05:04;23.10;99.90
51867;DHT22;52862;52.504;13.480;2023-07-16T06:07:31;22.80;99.90
51867;DHT22;52862;52.504;13.480;2023-07-16T06:09:58;22.70;99.90
51867;DHT22;52862;52.504;13.480;2023-07-16T06:12:25;23.40;99.90
51867;DHT22;52862;52.504;13.480;2023-07-16T06:14:52;22.60;99.90
51867;DHT22;52862;52.504;13.480;2023-07-16T06:17:19;23.30;99.90
51867;DHT22;52862;52.504;13.480;2023-07-16T06:19:47;22.70;99.90
51867;DHT22;52862;52.504;13.480;2023-07-16T06:22:16;23.30;99.90
51867;DHT22;52862;52.504;13.480;2023-07-16T06:27:10;23.30;99.90
51867;DHT22;52862;52.504;13.480;2023-07-16T06:29:36;23.10;99.90
51867;DHT22;52862;52.504;13.480;2023-07-16T06:32:04;23.20;99.90
51867;DHT22;52862;52.504;13.480;2023-07-16T06:34:31;23.50;99.90
51867;DHT22;52862;52.504;13.480;2023-07-16T06:36:58;24.00;99.90
51867;DHT22;52862;52.504;13.480;2023-07-16T06:41:52;23.90;99.90
51867;DHT22;52862;52.504;13.480;2023-07-16T06:46:48;24.50;99.90
51867;DHT22;52862;52.504;13.480;2023-07-16T06:49:16;24.60;99.90
51867;DHT22;52862;52.504;13.480;2023-07-16T06:51:43;24.10;99.90
51867;DHT22;52862;52.504;13.480;2023-07-16T06:54:10;23.90;99.90
51867;DHT22;52862;52.504;13.480;2023-07-16T06:59:04;24.60;99.90
51867;DHT22;52862;52.504;13.480;2023-07-16T07:06:26;24.50;99.90
51867;DHT22;52862;52.504;13.480;2023-07-16T07:08:52;24.90;99.90
51867;DHT22;52862;52.504;13.480;2023-07-16T07:11:20;24.90;99.90
51867;DHT22;52862;52.504;13.480;2023-07-16T07:16:16;24.50;99.90
51867;DHT22;52862;52.504;13.480;2023-07-16T07:18:43;24.70;99.90
51867;DHT22;52862;52.504;13.480;2023-07-16T07:21:10;25.10;99.90
51867;DHT22;52862;52.504;13.480;2023-07-16T07:23:37;24.70;99.90
51867;DHT22;52862;52.504;13.480;2023-07-16T07:26:04;23.80;99.90
51867;DHT22;52862;52.504;13.480;2023-07-16T07:28:31;24.70;99.90
51867;DHT22;52862;52.504;13.480;2023-07-16T07:30:59;24.60;99.90
51867;DHT22;52862;52.504;13.480;2023-07-16T07:33:26;24.30;99.90
51867;DHT22;52862;52.504;13.480;2023-07-16T07:35:53;24.40;99.90
51867;DHT22;52862;52.504;13.480;2023-07-16T07:38:20;24.80;99.90
51867;DHT22;52862;52.504;13.480;2023-07-16T07:43:14;24.80;99.90
51867;DHT22;52862;52.504;13.480;2023-07-16T07:45:42;24.90;99.90
51867;DHT22;52862;52.504;13.480;2023-07-16T07:48:09;25.60;99.90
51867;DHT22;52862;52.504;13.480;2023-07-16T07:50:36;25.60;99.90
51867;DHT22;52862;52.504;13.480;2023-07-16T07:53:03;25.70;99.90
51867;DHT22;52862;52.504;13.480;2023-07-16T07:55:30;25.90;99.90
51867;DHT22;52862;52.504;13.480;2023-07-16T07:57:57;25.50;99.90
51867;DHT22;52862;52.504;13.480;2023-07-16T08:00:23;25.80;99.90
51867;DHT22;52862;52.504;13.480;2023-07-16T08:02:51;25.60;99.90
51867;DHT22;52862;52.504;13.480;2023-07-16T08:05:18;25.00;99.90
51867;DHT22;52862;52.504;13.480;2023-07-16T08:10:12;24.70;99.90
51867;DHT22;52862;52.504;13.480;2023-07-16T08:12:39;23.80;99.90
51867;DHT22;52862;52.504;13.480;2023-07-16T08:15:07;24.60;99.90
51867;DHT22;52862;52.504;13.480;2023-07-16T08:17:35;24.20;99.90
51867;DHT22;52862;52.504;13.480;2023-07-16T08:20:03;25.40;99.90
51867;DHT22;52862;52.504;13.480;2023-07-16T08:22:30;25.90;99.90
51867;DHT22;52862;52.504;13.480;2023-07-16T08:24:57;25.30;99.90
51867;DHT22;52862;52.504;13.480;2023-07-16T08:29:51;24.80;99.90
51867;DHT22;52862;52.504;13.480;2023-07-16T08:32:18;24.80;99.90
51867;DHT22;52862;52.504;13.480;2023-07-16T08:37:13;24.20;99.90
51867;DHT22;52862;52.504;13.480;2023-07-16T08:39:40;24.50;99.90
51867;DHT22;52862;52.504;13.480;2023-07-16T08:42:09;24.70;99.90
51867;DHT22;52862;52.504;13.480;2023-07-16T08:44:36;25.00;99.90
51867;DHT22;52862;52.504;13.480;2023-07-16T08:47:04;25.10;99.90
51867;DHT22;52862;52.504;13.480;2023-07-16T08:49:31;25.00;99.90
51867;DHT22;52862;52.504;13.480;2023-07-16T08:52:01;25.30;99.90
51867;DHT22;52862;52.504;13.480;2023-07-16T08:54:29;25.70;99.90
51867;DHT22;52862;52.504;13.480;2023-07-16T08:56:56;26.20;99.90
51867;DHT22;52862;52.504;13.480;2023-07-16T08:59:23;25.60;99.90
51867;DHT22;52862;52.504;13.480;2023-07-16T09:01:51;25.60;99.90
51867;DHT22;52862;52.504;13.480;2023-07-16T09:04:19;26.20;99.90
51867;DHT22;52862;52.504;13.480;2023-07-16T09:06:45;25.80;99.90
51867;DHT22;52862;52.504;13.480;2023-07-16T09:09:19;26.20;99.90
51867;DHT22;52862;52.504;13.480;2023-07-16T09:11:47;26.00;99.90
51867;DHT22;52862;52.504;13.480;2023-07-16T09:14:16;26.90;99.90
51867;DHT22;52862;52.504;13.480;2023-07-16T09:16:43;26.20;99.90
51867;DHT22;52862;52.504;13.480;2023-07-16T09:19:10;26.10;99.90
51867;DHT22;52862;52.504;13.480;2023-07-16T09:21:39;26.00;99.90
51867;DHT22;52862;52.504;13.480;2023-07-16T09:24:07;26.20;99.90
51867;DHT22;52862;52.504;13.480;2023-07-16T09:26:36;26.30;99.90
51867;DHT22;52862;52.504;13.480;2023-07-16T09:29:06;26.40;99.90
51867;DHT22;52862;52.504;13.480;2023-07-16T09:31:33;25.70;99.90
51867;DHT22;52862;52.504;13.480;2023-07-16T09:34:00;24.80;99.90
51867;DHT22;52862;52.504;13.480;2023-07-16T09:36:27;26.10;99.90
51867;DHT22;52862;52.504;13.480;2023-07-16T09:38:55;25.70;99.90
51867;DHT22;52862;52.504;13.480;2023-07-16T09:41:24;26.10;99.90
51867;DHT22;52862;52.504;13.480;2023-07-16T09:43:51;25.70;99.90
51867;DHT22;52862;52.504;13.480;2023-07-16T09:46:18;25.70;99.90
51867;DHT22;52862;52.504;13.480;2023-07-16T09:48:45;25.30;99.90
51867;DHT22;52862;52.504;13.480;2023-07-16T09:51:13;26.10;99.90
51867;DHT22;52862;52.504;13.480;2023-07-16T09:53:42;26.20;99.90
51867;DHT22;52862;52.504;13.480;2023-07-16T09:56:12;25.70;99.90
51867;DHT22;52862;52.504;13.480;2023-07-16T09:58:40;25.30;99.90
51867;DHT22;52862;52.504;13.480;2023-07-16T10:01:08;25.70;99.90
51867;DHT22;52862;52.504;13.480;2023-07-16T10:03:36;27.00;99.90
51867;DHT22;52862;52.504;13.480;2023-07-16T10:06:06;27.10;99.90
51867;DHT22;52862;52.504;13.480;2023-07-16T10:08:34;27.10;99.90
51867;DHT22;52862;52.504;13.480;2023-07-16T10:11:01;26.90;99.90
51867;DHT22;52862;52.504;13.480;2023-07-16T10:13:28;26.50;99.90
51867;DHT22;52862;52.504;13.480;2023-07-16T10:15:57;27.00;99.90
51867;DHT22;52862;52.504;13.480;2023-07-16T10:18:26;26.50;99.90
51867;DHT22;52862;52.504;13.480;2023-07-16T10:21:02;26.30;99.90
51867;DHT22;52862;52.504;13.480;2023-07-16T10:23:37;26.20;99.90
51867;DHT22;52862;52.504;13.480;2023-07-16T10:26:06;26.10;99.90
51867;DHT22;52862;52.504;13.480;2023-07-16T10:28:34;26.40;99.90
51867;DHT22;52862;52.504;13.480;2023-07-16T10:31:01;27.00;99.90
51867;DHT22;52862;52.504;13.480;2023-07-16T10:33:29;26.50;99.90
51867;DHT22;52862;52.504;13.480;2023-07-16T10:35:57;27.40;99.90
51867;DHT22;52862;52.504;13.480;2023-07-16T10:38:26;27.30;99.90
51867;DHT22;52862;52.504;13.480;2023-07-16T10:40:53;27.50;99.90
51867;DHT22;52862;52.504;13.480;2023-07-16T10:43:24;26.90;99.90
51867;DHT22;52862;52.504;13.480;2023-07-16T10:48:24;27.30;99.90
51867;DHT22;52862;52.504;13.480;2023-07-16T10:50:53;27.40;99.90
51867;DHT22;52862;52.504;13.480;2023-07-16T10:53:21;26.80;99.90
51867;DHT22;52862;52.504;13.480;2023-07-16T10:55:49;27.00;99.90
51867;DHT22;52862;52.504;13.480;2023-07-16T10:58:17;27.20;99.90
51867;DHT22;52862;52.504;13.480;2023-07-16T11:00:45;27.30;99.90
51867;DHT22;52862;52.504;13.480;2023-07-16T11:03:15;26.60;99.90
51867;DHT22;52862;52.504;13.480;2023-07-16T11:05:45;26.00;99.90
51867;DHT22;52862;52.504;13.480;2023-07-16T11:08:22;26.50;99.90
51867;DHT22;52862;52.504;13.480;2023-07-16T11:10:54;26.60;99.90
51867;DHT22;52862;52.504;13.480;2023-07-16T11:13:26;26.90;99.90
51867;DHT22;52862;52.504;13.480;2023-07-16T11:15:54;26.70;99.90
51867;DHT22;52862;52.504;13.480;2023-07-16T11:18:23;27.20;99.90
51867;DHT22;52862;52.504;13.480;2023-07-16T11:20:52;28.30;99.90
51867;DHT22;52862;52.504;13.480;2023-07-16T11:23:20;26.70;99.90
51867;DHT22;52862;52.504;13.480;2023-07-16T11:25:52;26.50;99.90
51867;DHT22;52862;52.504;13.480;2023-07-16T11:28:23;27.30;99.90
51867;DHT22;52862;52.504;13.480;2023-07-16T11:30:52;27.90;99.90
51867;DHT22;52862;52.504;13.480;2023-07-16T11:33:22;27.50;99.90
51867;DHT22;52862;52.504;13.480;2023-07-16T11:35:50;27.00;99.90
51867;DHT22;52862;52.504;13.480;2023-07-16T11:38:20;26.80;99.90
51867;DHT22;52862;52.504;13.480;2023-07-16T11:41:08;27.10;99.90
51867;DHT22;52862;52.504;13.480;2023-07-16T11:43:41;26.60;99.90
51867;DHT22;52862;52.504;13.480;2023-07-16T11:46:23;26.50;99.90
51867;DHT22;52862;52.504;13.480;2023-07-16T11:49:05;26.50;99.90
51867;DHT22;52862;52.504;13.480;2023-07-16T11:51:32;26.70;99.90
51867;DHT22;52862;52.504;13.480;2023-07-16T11:54:00;26.60;99.90
51867;DHT22;52862;52.504;13.480;2023-07-16T11:56:27;27.00;99.90
51867;DHT22;52862;52.504;13.480;2023-07-16T11:58:55;26.90;99.90
51867;DHT22;52862;52.504;13.480;2023-07-16T12:01:23;27.40;99.90
51867;DHT22;52862;52.504;13.480;2023-07-16T12:03:51;27.80;99.90
51867;DHT22;52862;52.504;13.480;2023-07-16T12:06:19;27.80;99.90
51867;DHT22;52862;52.504;13.480;2023-07-16T12:08:46;28.50;99.90
51867;DHT22;52862;52.504;13.480;2023-07-16T12:11:14;29.70;99.90
51867;DHT22;52862;52.504;13.480;2023-07-16T12:13:57;29.10;95.50
51867;DHT22;52862;52.504;13.480;2023-07-16T12:16:26;30.10;96.90
51867;DHT22;52862;52.504;13.480;2023-07-16T12:18:54;29.50;96.80
51867;DHT22;52862;52.504;13.480;2023-07-16T12:21:22;29.40;94.40
51867;DHT22;52862;52.504;13.480;2023-07-16T12:23:49;30.30;93.00
51867;DHT22;52862;52.504;13.480;2023-07-16T12:26:17;30.10;92.70
51867;DHT22;52862;52.504;13.480;2023-07-16T12:28:45;30.00;92.60
51867;DHT22;52862;52.504;13.480;2023-07-16T12:31:15;29.70;92.40
51867;DHT22;52862;52.504;13.480;2023-07-16T12:33:52;29.50;83.10
51867;DHT22;52862;52.504;13.480;2023-07-16T12:36:20;29.40;92.50
51867;DHT22;52862;52.504;13.480;2023-07-16T12:38:48;28.50;82.50
51867;DHT22;52862;52.504;13.480;2023-07-16T12:41:16;29.80;83.50
51867;DHT22;52862;52.504;13.480;2023-07-16T12:43:43;29.60;84.70
51867;DHT22;52862;52.504;13.480;2023-07-16T12:46:11;29.70;92.70
51867;DHT22;52862;52.504;13.480;2023-07-16T12:48:40;30.00;84.60
51867;DHT22;52862;52.504;13.480;2023-07-16T12:51:09;29.30;92.40
51867;DHT22;52862;52.504;13.480;2023-07-16T12:53:36;30.40;91.80
51867;DHT22;52862;52.504;13.480;2023-07-16T12:56:04;29.90;91.50
51867;DHT22;52862;52.504;13.480;2023-07-16T12:58:32;30.00;82.00
51867;DHT22;52862;52.504;13.480;2023-07-16T13:01:01;29.30;91.50
51867;DHT22;52862;52.504;13.480;2023-07-16T13:03:45;30.40;92.00
51867;DHT22;52862;52.504;13.480;2023-07-16T13:06:41;29.80;90.50
51867;DHT22;52862;52.504;13.480;2023-07-16T13:09:11;30.00;89.70
51867;DHT22;52862;52.504;13.480;2023-07-16T13:11:39;30.00;87.80
51867;DHT22;52862;52.504;13.480;2023-07-16T13:14:10;30.70;78.30
51867;DHT22;52862;52.504;13.480;2023-07-16T13:16:38;29.20;90.60
51867;DHT22;52862;52.504;13.480;2023-07-16T13:19:06;30.00;90.50
51867;DHT22;52862;52.504;13.480;2023-07-16T13:21:34;32.50;81.50
51867;DHT22;52862;52.504;13.480;2023-07-16T13:24:11;31.40;89.20
51867;DHT22;52862;52.504;13.480;2023-07-16T13:26:39;30.70;76.50
51867;DHT22;52862;52.504;13.480;2023-07-16T13:29:08;31.50;88.60
51867;DHT22;52862;52.504;13.480;2023-07-16T13:31:36;30.60;77.60
51867;DHT22;52862;52.504;13.480;2023-07-16T13:34:04;31.50;86.70
51867;DHT22;52862;52.504;13.480;2023-07-16T13:36:33;31.30;75.50
51867;DHT22;52862;52.504;13.480;2023-07-16T13:39:00;30.50;87.00
51867;DHT22;52862;52.504;13.480;2023-07-16T13:41:32;30.70;86.90
51867;DHT22;52862;52.504;13.480;2023-07-16T13:44:00;29.60;88.90
51867;DHT22;52862;52.504;13.480;2023-07-16T13:46:28;29.50;89.70
51867;DHT22;52862;52.504;13.480;2023-07-16T13:48:55;29.60;88.40
51867;DHT22;52862;52.504;13.480;2023-07-16T13:51:26;30.60;87.50
51867;DHT22;52862;52.504;13.480;2023-07-16T13:53:55;32.40;86.80
51867;DHT22;52862;52.504;13.480;2023-07-16T13:56:23;31.90;85.50
51867;DHT22;52862;52.504;13.480;2023-07-16T14:01:19;31.40;82.70
51867;DHT22;52862;52.504;13.480;2023-07-16T14:03:47;31.60;72.90
51867;DHT22;52862;52.504;13.480;2023-07-16T14:06:14;29.70;86.20
51867;DHT22;52862;52.504;13.480;2023-07-16T14:08:42;29.10;74.40
51867;DHT22;52862;52.504;13.480;2023-07-16T14:11:12;30.10;72.80
51867;DHT22;52862;52.504;13.480;2023-07-16T14:13:44;31.40;86.30
51867;DHT22;52862;52.504;13.480;2023-07-16T14:16:13;31.80;69.40
51867;DHT22;52862;52.504;13.480;2023-07-16T14:18:53;32.50;79.40
51867;DHT22;52862;52.504;13.480;2023-07-16T14:21:27;34.40;76.00
51867;DHT22;52862;52.504;13.480;2023-07-16T14:23:55;33.80;64.30
51867;DHT22;52862;52.504;13.480;2023-07-16T14:26:23;32.30;76.50
51867;DHT22;52862;52.504;13.480;2023-07-16T14:28:50;34.00;75.00
51867;DHT22;52862;52.504;13.480;2023-07-16T14:31:17;32.90;68.80
51867;DHT22;52862;52.504;13.480;2023-07-16T14:38:39;30.20;78.40
51867;DHT22;52862;52.504;13.480;2023-07-16T14:41:05;31.10;79.90
51867;DHT22;52862;52.504;13.480;2023-07-16T14:43:34;31.10;66.30
51867;DHT22;52862;52.504;13.480;2023-07-16T14:46:01;33.00;68.40
51867;DHT22;52862;52.504;13.480;2023-07-16T14:53:23;37.00;69.40
51867;DHT22;52862;52.504;13.480;2023-07-16T14:55:51;37.40;66.20
51867;DHT22;52862;52.504;13.480;2023-07-16T14:58:19;38.50;57.50
51867;DHT22;52862;52.504;13.480;2023-07-16T15:00:47;37.30;63.80
51867;DHT22;52862;52.504;13.480;2023-07-16T15:03:14;36.30;64.70
51867;DHT22;52862;52.504;13.480;2023-07-16T15:05:41;36.20;64.10
51867;DHT22;52862;52.504;13.480;2023-07-16T15:08:08;35.70;66.40
51867;DHT22;52862;52.504;13.480;2023-07-16T15:13:02;34.30;63.40
51867;DHT22;52862;52.504;13.480;2023-07-16T15:15:31;32.40;68.00
51867;DHT22;52862;52.504;13.480;2023-07-16T15:17:59;30.80;70.00
51867;DHT22;52862;52.504;13.480;2023-07-16T15:20:26;30.30;74.00
51867;DHT22;52862;52.504;13.480;2023-07-16T15:22:52;29.80;73.90
51867;DHT22;52862;52.504;13.480;2023-07-16T15:25:20;31.70;72.30
51867;DHT22;52862;52.504;13.480;2023-07-16T15:27:46;35.60;66.00
51867;DHT22;52862;52.504;13.480;2023-07-16T15:32:40;37.00;53.40
51867;DHT22;52862;52.504;13.480;2023-07-16T15:35:09;38.70;53.30
51867;DHT22;52862;52.504;13.480;2023-07-16T15:37:35;39.30;51.80
51867;DHT22;52862;52.504;13.480;2023-07-16T15:40:12;40.30;51.50
51867;DHT22;52862;52.504;13.480;2023-07-16T15:45:09;38.30;57.00
51867;DHT22;52862;52.504;13.480;2023-07-16T15:50:04;33.60;55.10
51867;DHT22;52862;52.504;13.480;2023-07-16T15:52:32;31.80;56.10
51867;DHT22;52862;52.504;13.480;2023-07-16T15:54:59;34.00;65.40
51867;DHT22;52862;52.504;13.480;2023-07-16T15:59:53;35.00;62.10
51867;DHT22;52862;52.504;13.480;2023-07-16T16:04:47;30.70;68.10
51867;DHT22;52862;52.504;13.480;2023-07-16T16:07:14;31.60;68.00
51867;DHT22;52862;52.504;13.480;2023-07-16T16:09:41;32.50;67.60
51867;DHT22;52862;52.504;13.480;2023-07-16T16:12:08;33.00;66.20
51867;DHT22;52862;52.504;13.480;2023-07-16T16:19:34;36.80;59.90
51867;DHT22;52862;52.504;13.480;2023-07-16T16:22:01;37.40;57.40
51867;DHT22;52862;52.504;13.480;2023-07-16T16:24:28;37.30;57.60
51867;DHT22;52862;52.504;13.480;2023-07-16T16:26:55;36.60;57.50
51867;DHT22;52862;52.504;13.480;2023-07-16T16:29:22;35.70;59.70
51867;DHT22;52862;52.504;13.480;2023-07-16T16:31:50;32.90;63.80
51867;DHT22;52862;52.504;13.480;2023-07-16T16:39:11;30.60;68.70
51867;DHT22;52862;52.504;13.480;2023-07-16T16:41:37;30.30;68.40
51867;DHT22;52862;52.504;13.480;2023-07-16T16:44:05;29.80;58.60
51867;DHT22;52862;52.504;13.480;2023-07-16T16:46:32;29.40;60.40
51867;DHT22;52862;52.504;13.480;2023-07-16T16:49:00;29.30;71.80
51867;DHT22;52862;52.504;13.480;2023-07-16T16:51:28;28.60;72.30
51867;DHT22;52862;52.504;13.480;2023-07-16T16:53:57;29.00;73.60
51867;DHT22;52862;52.504;13.480;2023-07-16T16:56:23;28.60;72.40
51867;DHT22;52862;52.504;13.480;2023-07-16T16:58:50;29.30;72.90
51867;DHT22;52862;52.504;13.480;2023-07-16T17:01:19;29.50;74.10
51867;DHT22;52862;52.504;13.480;2023-07-16T17:03:47;29.10;71.90
51867;DHT22;52862;52.504;13.480;2023-07-16T17:06:13;29.70;75.40